Time;durP1;ratioP1;P1;durP2;ratioP2;P2;SDS_P1;SDS_P2;PMS_P1;PMS_P2;Temp;Humidity;BMP_temperature;BMP_pressure;BME280_temperature;BME280_humidity;BME280_pressure;Samples;Min_cycle;Max_cycle;Signal;HPM_P1;HPM_P2
2021/05/11 00:00:33;;;;;;;1.95;1.40;;;15.10;81.20;;;;;;10170762;27;20482;-58
2021/05/11 00:05:27;;;;;;;3.33;1.40;;;15.20;81.30;;;;;;10179396;27;20454;-59
2021/05/11 00:10:18;;;;;;;2.60;1.70;;;15.10;81.40;;;;;;10168899;27;20070;-58
2021/05/11 00:15:09;;;;;;;2.50;1.75;;;15.00;81.50;;;;;;10184302;27;20024;-59
2021/05/11 00:20:00;;;;;;;4.05;2.30;;;15.10;81.70;;;;;;10182355;27;20039;-59
2021/05/11 00:24:51;;;;;;;5.80;1.80;;;15.10;81.90;;;;;;10166219;27;20100;-61
2021/05/11 00:29:42;;;;;;;4.28;2.03;;;15.20;81.80;;;;;;10178558;27;20049;-58
2021/05/11 00:34:32;;;;;;;3.88;1.65;;;15.20;82.20;;;;;;10180576;27;20122;-59
2021/05/11 00:39:23;;;;;;;3.58;2.25;;;15.20;81.90;;;;;;10172037;27;20137;-59
2021/05/11 00:44:20;;;;;;;8.93;2.83;;;15.00;82.10;;;;;;10172274;27;20078;-58
2021/05/11 00:49:11;;;;;;;4.65;2.30;;;14.90;82.50;;;;;;10133896;28;20402;-59
2021/05/11 00:54:02;;;;;;;2.65;1.50;;;15.10;82.20;;;;;;10144837;28;20042;-59
2021/05/11 00:58:53;;;;;;;3.88;1.90;;;15.10;82.20;;;;;;10137036;28;20044;-60
2021/05/11 01:03:44;;;;;;;4.32;1.95;;;15.10;82.20;;;;;;10136950;28;20086;-59
2021/05/11 01:08:35;;;;;;;3.40;2.42;;;15.10;82.20;;;;;;10136705;28;20030;-59
2021/05/11 01:13:25;;;;;;;4.82;3.05;;;14.90;82.40;;;;;;10140316;28;20048;-58
2021/05/11 01:18:25;;;;;;;4.15;2.47;;;14.90;82.50;;;;;;10141664;28;20048;-59
2021/05/11 02:24:11;;;;;;;2.40;1.85;;;15.10;82.70;;;;;;10164627;27;20080;-58
2021/05/11 02:29:02;;;;;;;2.38;2.03;;;15.10;82.60;;;;;;10149810;27;20023;-59
2021/05/11 02:33:53;;;;;;;4.25;1.73;;;15.20;82.70;;;;;;10171140;27;20646;-57
2021/05/11 02:38:43;;;;;;;3.53;2.10;;;15.10;82.70;;;;;;10164961;27;20134;-59
2021/05/11 02:43:37;;;;;;;2.97;1.90;;;15.10;82.60;;;;;;10163138;27;20036;-60
2021/05/11 02:48:28;;;;;;;5.28;2.00;;;15.10;82.80;;;;;;10177150;27;20083;-58
2021/05/11 02:53:19;;;;;;;4.03;2.42;;;15.00;82.90;;;;;;10175535;27;20032;-57
2021/05/11 02:58:14;;;;;;;4.03;2.90;;;14.90;83.40;;;;;;10164114;28;20040;-60
2021/05/11 03:03:05;;;;;;;4.87;2.93;;;14.90;83.50;;;;;;10146481;28;20325;-59
2021/05/11 03:07:56;;;;;;;4.75;2.65;;;14.90;83.10;;;;;;10154207;28;20191;-59
2021/05/11 03:12:47;;;;;;;4.68;2.85;;;14.90;83.10;;;;;;10152611;28;20041;-58
2021/05/11 03:17:39;;;;;;;4.95;2.60;;;14.90;83.20;;;;;;10173785;28;20885;-59
2021/05/11 03:22:29;;;;;;;5.30;3.17;;;14.90;83.60;;;;;;10181123;27;20043;-59
2021/05/11 03:27:20;;;;;;;4.32;2.88;;;14.80;83.90;;;;;;10177825;27;20073;-61
2021/05/11 03:32:11;;;;;;;4.88;3.08;;;14.80;83.80;;;;;;10173492;27;20022;-61
2021/05/11 03:37:02;;;;;;;5.55;3.20;;;14.80;83.90;;;;;;10172264;27;20040;-58
2021/05/11 03:41:57;;;;;;;7.30;3.33;;;14.80;83.80;;;;;;10161938;28;20123;-60
2021/05/11 03:46:48;;;;;;;5.53;3.17;;;14.80;83.90;;;;;;10169457;27;20333;-60
2021/05/11 03:51:39;;;;;;;4.68;3.03;;;14.80;84.00;;;;;;10177638;27;20046;-58
2021/05/11 03:56:30;;;;;;;6.25;3.70;;;14.80;84.70;;;;;;10178785;27;20816;-60
2021/05/11 04:01:20;;;;;;;6.82;3.78;;;14.80;84.30;;;;;;10161236;27;20043;-57
2021/05/11 04:06:11;;;;;;;5.07;3.33;;;14.80;84.20;;;;;;10169423;27;20792;-59
2021/05/11 04:21:05;;;;;;;7.05;3.83;;;14.90;84.10;;;;;;10175133;27;20450;-59
2021/05/11 04:25:55;;;;;;;5.40;2.97;;;14.80;84.30;;;;;;10179233;27;20043;-60
2021/05/11 04:30:46;;;;;;;5.70;3.00;;;14.80;84.20;;;;;;10182899;27;20092;-59
2021/05/11 04:35:37;;;;;;;5.25;3.42;;;14.70;84.50;;;;;;10174168;27;20140;-58
2021/05/11 04:40:28;;;;;;;5.03;2.88;;;14.80;84.30;;;;;;10187243;27;20570;-59
2021/05/11 04:45:25;;;;;;;6.05;3.97;;;14.70;84.80;;;;;;10182243;27;20031;-60
2021/05/11 04:50:18;;;;;;;5.53;3.30;;;14.70;84.90;;;;;;10121395;28;20471;-59
2021/05/11 04:55:12;;;;;;;6.20;3.65;;;14.80;84.30;;;;;;10117959;28;20044;-58
2021/05/11 05:00:06;;;;;;;18.90;8.40;;;14.70;84.60;;;;;;10121009;28;20078;-59
2021/05/11 05:04:56;;;;;;;6.95;3.25;;;14.60;84.40;;;;;;10106131;28;20118;-58
2021/05/11 05:09:47;;;;;;;5.38;3.00;;;14.60;84.70;;;;;;10121859;28;20052;-61
2021/05/11 05:14:38;;;;;;;7.68;3.75;;;14.40;84.40;;;;;;10120600;28;20054;-59
2021/05/11 05:19:29;;;;;;;6.63;3.72;;;14.30;85.70;;;;;;10123142;28;20531;-59
2021/05/11 05:24:27;;;;;;;5.30;2.70;;;14.40;85.60;;;;;;10121041;28;21007;-61
2021/05/11 05:29:18;;;;;;;5.40;3.67;;;14.50;85.60;;;;;;10120196;28;20097;-58
2021/05/11 05:34:09;;;;;;;4.20;2.67;;;14.50;85.60;;;;;;10120821;28;20466;-59
2021/05/11 05:39:00;;;;;;;6.07;3.28;;;14.30;85.80;;;;;;10119924;28;20137;-59
2021/05/11 05:43:51;;;;;;;4.47;2.38;;;14.40;85.80;;;;;;10120404;28;20035;-58
2021/05/11 05:48:43;;;;;;;4.53;2.70;;;14.50;85.80;;;;;;10158565;27;20133;-59
2021/05/11 05:53:36;;;;;;;3.22;2.05;;;14.60;85.50;;;;;;10182222;27;20019;-60
2021/05/11 05:58:27;;;;;;;3.05;1.35;;;14.50;85.70;;;;;;10177590;27;20165;-58
2021/05/11 06:08:28;;;;;;;3.13;1.45;;;14.50;86.20;;;;;;10184539;27;20509;-60
2021/05/11 06:13:22;;;;;;;3.03;1.92;;;14.50;86.10;;;;;;10165841;27;20023;-59
2021/05/11 06:18:13;;;;;;;2.90;1.73;;;14.60;85.60;;;;;;10186788;27;20043;-60
2021/05/11 06:23:04;;;;;;;3.78;1.52;;;14.50;85.80;;;;;;10176993;27;20028;-59
2021/05/11 06:27:58;;;;;;;3.22;1.80;;;14.60;85.60;;;;;;10180415;27;20036;-58
2021/05/11 06:32:49;;;;;;;2.00;1.40;;;14.70;85.50;;;;;;10170333;27;20428;-58
2021/05/11 06:37:40;;;;;;;3.47;1.67;;;14.60;86.00;;;;;;10155638;27;20031;-59
2021/05/11 06:42:31;;;;;;;2.40;1.55;;;14.60;85.80;;;;;;10210093;27;20112;-58
2021/05/11 06:47:33;;;;;;;2.22;1.60;;;14.70;85.70;;;;;;10180989;27;20439;-59
2021/05/11 06:57:23;;;;;;;2.95;1.92;;;14.70;85.50;;;;;;10175950;27;20085;-59
2021/05/11 07:02:14;;;;;;;1.80;1.42;;;14.80;85.60;;;;;;10188948;27;20049;-59
2021/05/11 07:07:08;;;;;;;1.55;1.20;;;14.80;85.70;;;;;;10166268;28;20036;-55
2021/05/11 07:16:50;;;;;;;3.35;1.90;;;14.70;86.10;;;;;;10175702;28;20047;-58
2021/05/11 07:21:40;;;;;;;1.35;1.00;;;14.70;86.00;;;;;;10173666;28;20031;-59
2021/05/11 07:26:32;;;;;;;3.35;1.73;;;14.80;86.10;;;;;;10176396;28;20056;-59
2021/05/11 07:31:22;;;;;;;3.00;1.58;;;14.80;85.90;;;;;;10145292;28;20107;-59
2021/05/11 07:36:14;;;;;;;3.25;2.05;;;14.80;85.20;;;;;;10178313;28;20086;-59
2021/05/11 07:41:06;;;;;;;2.80;1.60;;;14.80;85.60;;;;;;10175877;28;20032;-60
2021/05/11 08:16:59;;;;;;;2.88;1.80;;;14.90;85.40;;;;;;10179444;27;20416;-58
2021/05/11 08:22:41;;;;;;;4.43;2.33;;;14.80;85.40;;;;;;10182099;27;20137;-58
2021/05/11 08:32:24;;;;;;;3.88;2.10;;;14.70;86.40;;;;;;10099703;27;20540;-58
2021/05/11 08:37:20;;;;;;;4.00;2.25;;;14.70;86.00;;;;;;10167349;27;20484;-60
2021/05/11 08:42:11;;;;;;;2.50;1.80;;;14.60;85.80;;;;;;10171728;27;20027;-60
2021/05/11 08:47:02;;;;;;;3.03;1.90;;;14.60;86.20;;;;;;10165324;27;20048;-60
2021/05/11 08:52:08;;;;;;;2.95;1.58;;;14.60;85.70;;;;;;10157244;27;20031;-61
2021/05/11 09:28:42;;;;;;;3.70;2.65;;;15.00;86.20;;;;;;10141922;28;20054;-60
2021/05/11 09:33:37;;;;;;;2.17;1.90;;;15.00;86.10;;;;;;10145442;27;20559;-59
2021/05/11 10:41:20;;;;;;;3.22;2.30;;;14.60;86.70;;;;;;10170142;27;20126;-60
2021/05/11 10:51:28;;;;;;;1.30;1.05;;;14.60;86.70;;;;;;10151093;27;20074;-60
2021/05/11 10:56:45;;;;;;;1.88;1.10;;;14.40;87.20;;;;;;10162069;27;20478;-58
2021/05/11 11:01:36;;;;;;;2.53;1.73;;;14.50;87.00;;;;;;10160472;27;20855;-59
2021/05/11 11:07:01;;;;;;;3.20;1.38;;;14.50;86.80;;;;;;10157166;28;20342;-60
2021/05/11 11:11:52;;;;;;;4.30;1.70;;;14.50;87.20;;;;;;10162317;28;20121;-59
2021/05/11 11:16:44;;;;;;;2.92;1.60;;;14.60;86.90;;;;;;10157809;28;20702;-60
2021/05/11 11:26:42;;;;;;;3.63;1.40;;;14.80;86.90;;;;;;10167396;28;20043;-59
2021/05/11 11:31:38;;;;;;;2.58;1.60;;;15.10;86.90;;;;;;10156330;28;20367;-60
2021/05/11 11:36:32;;;;;;;;;;;15.30;86.50;;;;;;10160263;28;20088;-60
2021/05/11 11:41:28;;;;;;;2.20;1.17;;;15.50;86.60;;;;;;10159464;28;20369;-60
2021/05/11 11:46:28;;;;;;;2.20;1.50;;;15.50;86.40;;;;;;10167496;27;21008;-58
2021/05/11 11:51:30;;;;;;;3.35;1.45;;;15.70;86.50;;;;;;10166343;27;20046;-58
2021/05/11 11:57:43;;;;;;;4.47;2.42;;;15.60;86.90;;;;;;10163273;27;20032;-59
2021/05/11 12:02:01;;;;;;;2.38;1.90;;;15.70;86.90;;;;;;10162675;27;20349;-59
2021/05/11 12:06:52;;;;;;;1.25;0.90;;;15.60;86.50;;;;;;10162065;27;20032;-59
2021/05/11 12:11:43;;;;;;;0.85;0.65;;;15.60;86.30;;;;;;10173680;27;20175;-57
2021/05/11 12:16:44;;;;;;;1.33;0.80;;;15.50;86.30;;;;;;10167231;27;20023;-56
2021/05/11 12:21:53;;;;;;;1.77;0.93;;;15.40;86.00;;;;;;10164646;27;20032;-58
2021/05/11 12:26:44;;;;;;;2.22;1.40;;;15.40;86.00;;;;;;10165272;27;20038;-57
2021/05/11 12:31:49;;;;;;;2.30;1.38;;;15.30;86.30;;;;;;10168481;27;20380;-58
2021/05/11 12:36:45;;;;;;;1.90;1.50;;;15.30;85.90;;;;;;10157510;27;20115;-59
2021/05/11 12:41:36;;;;;;;1.23;1.13;;;15.30;85.70;;;;;;10155574;27;20568;-60
2021/05/11 12:46:29;;;;;;;0.93;0.70;;;15.30;85.40;;;;;;10161231;27;20283;-59
2021/05/11 12:51:26;;;;;;;2.17;0.82;;;15.50;84.60;;;;;;10144684;27;20089;-60
2021/05/11 13:17:06;;;;;;;2.15;1.25;;;16.00;84.10;;;;;;10132549;27;20050;-62
2021/05/11 13:26:53;;;;;;;1.10;1.00;;;16.00;84.30;;;;;;10157574;27;20043;-61
2021/05/11 13:31:51;;;;;;;1.00;0.82;;;16.00;85.00;;;;;;10155358;27;20036;-56
2021/05/11 13:36:42;;;;;;;1.23;0.80;;;15.90;84.70;;;;;;10169892;27;20026;-58
2021/05/11 13:41:33;;;;;;;3.35;1.80;;;16.00;84.70;;;;;;10157184;27;20042;-58
2021/05/11 13:46:24;;;;;;;2.45;1.40;;;16.00;84.50;;;;;;10151027;27;20064;-60
2021/05/11 13:51:18;;;;;;;1.95;1.05;;;15.90;84.80;;;;;;10106015;28;20414;-61
2021/05/11 13:56:22;;;;;;;1.20;1.02;;;15.90;84.50;;;;;;10096514;28;20114;-61
2021/05/11 14:06:23;;;;;;;0.95;0.88;;;15.70;84.80;;;;;;10107862;28;20104;-60
2021/05/11 14:11:15;;;;;;;3.45;1.77;;;15.70;84.50;;;;;;10096477;28;20044;-56
2021/05/11 14:16:06;;;;;;;2.90;1.05;;;15.80;84.50;;;;;;10083647;28;20086;-59
2021/05/11 14:20:56;;;;;;;2.72;1.35;;;15.70;84.80;;;;;;10106022;28;20086;-58
2021/05/11 14:25:47;;;;;;;1.00;0.80;;;15.90;84.70;;;;;;10099719;28;20474;-59
2021/05/11 14:30:38;;;;;;;1.33;1.13;;;15.80;84.40;;;;;;10103471;28;20056;-59
2021/05/11 14:35:29;;;;;;;1.25;0.95;;;15.80;84.40;;;;;;10107199;28;20216;-58
2021/05/11 14:40:19;;;;;;;1.90;1.20;;;15.80;84.50;;;;;;10102863;28;20028;-57
2021/05/11 14:45:11;;;;;;;1.80;1.08;;;15.70;84.50;;;;;;10102583;28;20032;-59
2021/05/11 14:50:03;;;;;;;1.38;0.90;;;15.80;84.50;;;;;;10152697;27;20462;-59
2021/05/11 14:54:55;;;;;;;1.50;0.90;;;15.80;84.40;;;;;;10133570;27;20919;-59
2021/05/11 14:59:46;;;;;;;2.47;0.75;;;15.80;84.50;;;;;;10143437;27;20194;-57
2021/05/11 15:04:36;;;;;;;2.80;1.38;;;15.70;84.50;;;;;;10154309;28;20055;-59
2021/05/11 15:09:28;;;;;;;1.00;0.60;;;15.80;84.50;;;;;;10149977;28;20527;-59
2021/05/11 15:14:19;;;;;;;0.70;0.57;;;15.70;84.40;;;;;;10150560;28;20042;-58
2021/05/11 15:19:10;;;;;;;1.17;0.80;;;15.60;84.70;;;;;;10162778;27;20115;-58
2021/05/11 15:24:02;;;;;;;1.85;1.00;;;15.60;84.70;;;;;;10168620;27;20055;-58
2021/05/11 15:28:53;;;;;;;0.77;0.77;;;15.70;84.50;;;;;;10170094;27;20594;-59
2021/05/11 15:33:44;;;;;;;1.90;1.02;;;15.70;84.40;;;;;;10162770;27;20035;-58
2021/05/11 15:38:34;;;;;;;1.33;1.20;;;15.70;84.50;;;;;;10173146;27;21275;-59
2021/05/11 15:43:26;;;;;;;1.80;1.30;;;15.70;84.50;;;;;;10162364;27;20080;-59
2021/05/11 15:48:17;;;;;;;2.97;1.10;;;15.60;84.80;;;;;;10164976;27;20177;-59
2021/05/11 15:53:10;;;;;;;1.50;1.00;;;15.60;84.80;;;;;;10161335;27;20020;-59
2021/05/11 15:58:02;;;;;;;2.15;1.30;;;15.70;84.80;;;;;;10158444;27;20104;-56
2021/05/11 16:02:54;;;;;;;2.45;1.20;;;15.50;85.20;;;;;;10173175;27;20663;-60
2021/05/11 16:07:45;;;;;;;2.00;1.20;;;15.50;85.30;;;;;;10169006;27;20922;-62
2021/05/11 16:12:37;;;;;;;2.55;1.30;;;15.60;84.90;;;;;;10171365;27;20104;-59
2021/05/11 16:17:28;;;;;;;1.65;1.30;;;15.50;85.00;;;;;;10163214;27;20031;-59
2021/05/11 16:22:19;;;;;;;1.98;1.38;;;15.40;85.10;;;;;;10150516;27;20541;-61
2021/05/11 16:27:10;;;;;;;1.10;0.90;;;15.40;85.80;;;;;;10153193;27;20025;-57
2021/05/11 16:32:01;;;;;;;4.22;1.10;;;15.30;85.80;;;;;;10154792;27;20149;-61
2021/05/11 16:36:53;;;;;;;2.33;1.10;;;15.30;85.70;;;;;;10174215;27;20387;-59
2021/05/11 16:41:43;;;;;;;2.58;0.85;;;15.30;85.70;;;;;;10179820;27;20028;-60
2021/05/11 16:46:36;;;;;;;2.20;1.52;;;15.30;85.70;;;;;;10177806;27;20134;-59
2021/05/11 16:51:27;;;;;;;1.17;0.70;;;15.20;85.80;;;;;;10176110;27;20071;-57
2021/05/11 16:56:18;;;;;;;1.58;0.80;;;15.00;86.40;;;;;;10167306;27;20044;-59
2021/05/11 17:01:08;;;;;;;0.93;0.85;;;15.00;86.50;;;;;;10154583;27;20038;-59
2021/05/11 17:05:59;;;;;;;0.93;0.80;;;14.90;86.40;;;;;;10178086;27;20089;-58
2021/05/11 17:10:50;;;;;;;1.27;1.00;;;15.10;86.20;;;;;;10185056;27;20081;-59
2021/05/11 17:15:41;;;;;;;0.80;0.80;;;15.10;86.00;;;;;;10183064;27;20508;-58
2021/05/11 17:20:34;;;;;;;1.40;0.85;;;15.10;86.20;;;;;;10170426;27;20116;-58
2021/05/11 17:25:26;;;;;;;2.20;1.38;;;15.20;85.90;;;;;;10185536;27;20116;-58
2021/05/11 17:30:18;;;;;;;2.90;1.10;;;15.20;85.70;;;;;;10175761;27;20047;-60
2021/05/11 17:35:14;;;;;;;2.25;1.17;;;15.20;85.50;;;;;;10180016;27;20145;-59
2021/05/11 17:40:09;;;;;;;4.25;1.60;;;15.30;85.70;;;;;;10177158;27;20579;-60
2021/05/11 17:45:00;;;;;;;7.33;2.00;;;15.20;85.70;;;;;;10182620;27;20583;-61
2021/05/11 17:49:52;;;;;;;2.03;1.50;;;15.20;85.90;;;;;;10170188;27;20363;-59
2021/05/11 17:54:44;;;;;;;2.50;1.90;;;15.20;86.00;;;;;;10166282;27;20039;-58
2021/05/11 17:59:35;;;;;;;2.45;2.08;;;15.20;86.80;;;;;;10175823;27;20721;-60
2021/05/11 18:04:26;;;;;;;2.53;1.70;;;15.20;86.30;;;;;;10168965;27;20026;-60
2021/05/11 18:09:17;;;;;;;2.33;1.60;;;15.20;86.20;;;;;;10171090;27;20471;-66
2021/05/11 18:14:07;;;;;;;3.05;2.00;;;15.10;86.30;;;;;;10169250;27;20058;-60
2021/05/11 18:18:58;;;;;;;2.63;1.70;;;15.10;86.70;;;;;;10164561;27;20028;-60
2021/05/11 18:23:49;;;;;;;3.95;1.75;;;15.10;86.50;;;;;;10171194;27;20036;-60
2021/05/11 18:28:40;;;;;;;2.80;1.90;;;15.10;86.40;;;;;;10181925;27;20040;-59
2021/05/11 18:33:33;;;;;;;3.88;1.98;;;15.10;86.60;;;;;;10183663;27;20070;-60
2021/05/11 18:38:28;;;;;;;2.08;1.73;;;14.90;87.00;;;;;;10166206;27;20641;-58
2021/05/11 18:43:19;;;;;;;3.17;1.93;;;14.90;86.90;;;;;;10170751;27;20033;-60
2021/05/11 18:48:09;;;;;;;2.65;1.83;;;15.00;86.80;;;;;;10140774;27;20162;-60
2021/05/11 18:53:02;;;;;;;2.35;1.58;;;14.90;86.90;;;;;;10164389;27;20396;-61
2021/05/11 18:57:53;;;;;;;3.40;1.58;;;14.90;86.90;;;;;;10165306;27;20031;-62
2021/05/11 19:02:45;;;;;;;2.15;1.45;;;14.90;86.90;;;;;;10151061;27;20462;-60
2021/05/11 19:07:36;;;;;;;4.05;2.47;;;14.80;87.20;;;;;;10164875;27;20063;-61
2021/05/11 19:12:26;;;;;;;4.00;2.35;;;14.90;87.00;;;;;;10156094;28;20999;-61
2021/05/11 19:17:18;;;;;;;3.35;2.28;;;14.90;87.10;;;;;;10157541;28;20081;-58
2021/05/11 19:22:09;;;;;;;4.10;1.85;;;14.80;87.20;;;;;;10167335;28;20576;-61
2021/05/11 19:27:00;;;;;;;3.25;1.98;;;14.90;87.20;;;;;;10145787;28;20065;-59
2021/05/11 19:31:51;;;;;;;3.55;1.85;;;14.90;87.20;;;;;;10164314;28;20611;-60
2021/05/11 19:36:43;;;;;;;4.30;1.83;;;14.80;87.20;;;;;;10165864;28;20446;-59
2021/05/11 19:41:34;;;;;;;2.67;1.80;;;14.80;87.40;;;;;;10152272;28;20172;-61
2021/05/11 19:46:25;;;;;;;2.95;2.08;;;14.80;87.70;;;;;;10166273;28;20172;-59
2021/05/11 19:51:16;;;;;;;8.20;2.05;;;14.80;87.70;;;;;;10173500;28;20722;-60
2021/05/11 19:56:07;;;;;;;3.72;2.08;;;14.90;87.50;;;;;;10170809;28;20508;-62
2021/05/11 20:00:58;;;;;;;3.22;2.30;;;14.80;87.60;;;;;;10162149;28;20035;-60
2021/05/11 20:05:50;;;;;;;3.08;1.83;;;14.80;87.70;;;;;;10171190;27;20036;-61
2021/05/11 20:10:41;;;;;;;4.07;2.60;;;14.70;88.00;;;;;;10165714;27;20035;-56
2021/05/11 20:15:32;;;;;;;3.53;2.25;;;14.80;87.80;;;;;;10168227;27;20024;-58
2021/05/11 20:20:24;;;;;;;6.10;2.17;;;14.80;87.70;;;;;;10181440;27;20466;-59
2021/05/11 20:25:16;;;;;;;2.83;1.85;;;14.70;88.10;;;;;;10184586;27;20916;-62
2021/05/11 20:30:08;;;;;;;5.15;2.58;;;14.70;87.80;;;;;;10173538;27;20466;-62
2021/05/11 20:35:11;;;;;;;4.43;2.08;;;14.60;88.00;;;;;;10156938;27;20040;-60
2021/05/11 20:40:02;;;;;;;4.30;2.20;;;14.70;88.00;;;;;;10157099;27;20035;-60
2021/05/11 20:44:53;;;;;;;2.75;2.33;;;14.70;88.00;;;;;;10168498;27;20504;-62
2021/05/11 20:49:44;;;;;;;3.72;2.17;;;14.70;88.00;;;;;;10164117;27;20140;-61
2021/05/11 20:54:35;;;;;;;3.17;2.00;;;14.60;88.20;;;;;;10172335;27;21007;-61
2021/05/11 20:59:26;;;;;;;4.65;2.55;;;14.60;88.20;;;;;;10173011;27;20481;-58
2021/05/11 21:04:16;;;;;;;4.00;2.80;;;14.50;88.30;;;;;;10166491;27;20435;-60
2021/05/11 21:09:15;;;;;;;3.90;2.78;;;14.50;88.60;;;;;;10169097;27;20092;-61
2021/05/11 21:14:05;;;;;;;5.07;2.95;;;14.50;88.70;;;;;;10179034;27;20072;-60
2021/05/11 21:18:56;;;;;;;6.85;3.30;;;14.50;88.50;;;;;;10168638;27;20674;-58
2021/05/11 21:23:47;;;;;;;5.38;3.20;;;14.50;88.50;;;;;;10168129;27;20028;-60
2021/05/11 21:28:37;;;;;;;3.40;2.28;;;14.50;88.60;;;;;;10170489;27;20127;-61
2021/05/11 21:33:28;;;;;;;4.35;2.72;;;14.50;88.90;;;;;;10171053;27;20061;-60
2021/05/11 21:38:19;;;;;;;2.67;2.38;;;14.50;88.80;;;;;;10172806;27;20023;-59
2021/05/11 21:43:10;;;;;;;2.22;1.40;;;14.50;88.70;;;;;;10165643;27;20028;-60
2021/05/11 21:48:01;;;;;;;2.80;1.60;;;14.40;88.70;;;;;;10175611;27;20051;-60
2021/05/11 21:52:52;;;;;;;2.33;1.17;;;14.30;88.50;;;;;;10173569;27;20537;-62
2021/05/11 21:57:43;;;;;;;1.40;1.25;;;14.30;88.40;;;;;;10177691;27;20019;-60
2021/05/11 22:02:33;;;;;;;1.67;1.15;;;14.30;88.40;;;;;;10194810;27;20054;-61
2021/05/11 22:07:24;;;;;;;1.85;1.58;;;14.30;88.00;;;;;;10195793;27;20854;-60
2021/05/11 22:12:15;;;;;;;1.60;0.98;;;14.30;87.70;;;;;;10193883;27;20335;-60
2021/05/11 22:17:06;;;;;;;1.52;1.10;;;14.30;87.50;;;;;;10193056;27;20047;-60
2021/05/11 22:21:56;;;;;;;0.85;0.70;;;14.20;87.30;;;;;;10194686;27;20063;-60
2021/05/11 22:26:47;;;;;;;1.73;0.95;;;14.20;87.20;;;;;;10192665;27;20031;-60
2021/05/11 22:31:38;;;;;;;0.77;0.70;;;14.20;86.90;;;;;;10189363;27;20043;-60
2021/05/11 22:36:29;;;;;;;1.30;1.20;;;14.10;86.60;;;;;;10165472;27;20144;-60
2021/05/11 22:41:20;;;;;;;0.95;0.70;;;14.10;86.30;;;;;;10173257;27;20035;-59
2021/05/11 22:46:11;;;;;;;2.40;0.95;;;14.10;86.10;;;;;;10174606;27;20515;-61
2021/05/11 22:51:03;;;;;;;0.95;0.82;;;14.10;85.80;;;;;;10168958;27;20040;-59
2021/05/11 22:55:56;;;;;;;1.42;0.82;;;14.10;85.60;;;;;;10160087;28;20036;-60
2021/05/11 23:00:48;;;;;;;2.10;0.88;;;14.10;85.40;;;;;;10182921;27;20027;-60
2021/05/11 23:05:39;;;;;;;4.47;1.15;;;14.20;84.80;;;;;;10172999;27;20118;-61
2021/05/11 23:10:31;;;;;;;1.50;0.93;;;14.20;84.80;;;;;;10160205;28;20043;-60
2021/05/11 23:15:25;;;;;;;2.83;1.00;;;14.20;84.70;;;;;;10167016;28;20039;-62
2021/05/11 23:20:18;;;;;;;1.48;0.98;;;14.10;84.80;;;;;;10180068;28;20031;-59
2021/05/11 23:25:10;;;;;;;1.30;0.63;;;14.00;85.10;;;;;;10175241;28;20040;-60
2021/05/11 23:30:00;;;;;;;2.08;0.88;;;14.00;85.00;;;;;;10184558;28;20104;-61
2021/05/11 23:34:51;;;;;;;2.50;0.88;;;13.90;85.10;;;;;;10174356;28;21166;-60
2021/05/11 23:39:42;;;;;;;1.20;0.82;;;13.90;85.10;;;;;;10174340;27;20471;-59
2021/05/11 23:44:32;;;;;;;4.05;1.08;;;13.90;85.00;;;;;;10178197;27;20162;-60
2021/05/11 23:49:23;;;;;;;1.10;0.80;;;13.90;84.60;;;;;;10182641;27;20404;-60
2021/05/11 23:54:14;;;;;;;3.25;1.10;;;13.90;84.50;;;;;;10186497;27;20038;-59
2021/05/11 23:59:05;;;;;;;0.55;0.45;;;13.90;84.40;;;;;;10166118;27;20028;-60
